sensor_id;sensor_type;location;lat;lon;timestamp;P1;durP1;ratioP1;P2;durP2;ratioP2
19388;SDS011;9830;41.876;23.474;2023-07-28T00:00:19;3.20;;;0.67;;
19388;SDS011;9830;41.876;23.474;2023-07-28T00:02:45;0.90;;;0.83;;
19388;SDS011;9830;41.876;23.474;2023-07-28T00:05:10;0.53;;;0.53;;
19388;SDS011;9830;41.876;23.474;2023-07-28T00:07:36;0.40;;;0.40;;
19388;SDS011;9830;41.876;23.474;2023-07-28T00:10:02;0.23;;;0.23;;
19388;SDS011;9830;41.876;23.474;2023-07-28T00:12:28;2.03;;;0.93;;
19388;SDS011;9830;41.876;23.474;2023-07-28T00:14:53;2.43;;;0.77;;
19388;SDS011;9830;41.876;23.474;2023-07-28T00:17:21;0.27;;;0.27;;
19388;SDS011;9830;41.876;23.474;2023-07-28T00:19:47;0.47;;;0.47;;
19388;SDS011;9830;41.876;23.474;2023-07-28T00:22:12;0.30;;;0.30;;
19388;SDS011;9830;41.876;23.474;2023-07-28T00:24:38;0.20;;;0.20;;
19388;SDS011;9830;41.876;23.474;2023-07-28T00:27:04;0.87;;;0.50;;
19388;SDS011;9830;41.876;23.474;2023-07-28T00:29:30;0.27;;;0.20;;
19388;SDS011;9830;41.876;23.474;2023-07-28T00:31:55;0.17;;;0.17;;
19388;SDS011;9830;41.876;23.474;2023-07-28T00:34:21;0.70;;;0.70;;
19388;SDS011;9830;41.876;23.474;2023-07-28T00:36:46;0.17;;;0.17;;
19388;SDS011;9830;41.876;23.474;2023-07-28T00:39:12;0.10;;;0.10;;
19388;SDS011;9830;41.876;23.474;2023-07-28T00:41:38;2.10;;;1.30;;
19388;SDS011;9830;41.876;23.474;2023-07-28T00:44:04;1.13;;;0.97;;
19388;SDS011;9830;41.876;23.474;2023-07-28T00:46:30;0.87;;;0.87;;
19388;SDS011;9830;41.876;23.474;2023-07-28T00:48:56;0.50;;;0.50;;
19388;SDS011;9830;41.876;23.474;2023-07-28T00:51:22;1.80;;;0.50;;
19388;SDS011;9830;41.876;23.474;2023-07-28T00:53:48;0.13;;;0.13;;
19388;SDS011;9830;41.876;23.474;2023-07-28T00:56:14;0.37;;;0.37;;
19388;SDS011;9830;41.876;23.474;2023-07-28T00:58:40;0.97;;;0.37;;
19388;SDS011;9830;41.876;23.474;2023-07-28T01:01:06;0.00;;;0.00;;
19388;SDS011;9830;41.876;23.474;2023-07-28T01:03:31;0.10;;;0.10;;
19388;SDS011;9830;41.876;23.474;2023-07-28T01:08:56;0.43;;;0.17;;
19388;SDS011;9830;41.876;23.474;2023-07-28T01:11:30;1.03;;;0.57;;
19388;SDS011;9830;41.876;23.474;2023-07-28T01:13:56;0.23;;;0.23;;
19388;SDS011;9830;41.876;23.474;2023-07-28T01:16:22;0.20;;;0.20;;
19388;SDS011;9830;41.876;23.474;2023-07-28T01:18:48;0.30;;;0.07;;
19388;SDS011;9830;41.876;23.474;2023-07-28T01:21:17;0.23;;;0.23;;
19388;SDS011;9830;41.876;23.474;2023-07-28T01:26:45;0.13;;;0.13;;
19388;SDS011;9830;41.876;23.474;2023-07-28T01:29:12;0.20;;;0.20;;
19388;SDS011;9830;41.876;23.474;2023-07-28T01:31:40;0.30;;;0.30;;
19388;SDS011;9830;41.876;23.474;2023-07-28T01:34:06;0.20;;;0.20;;
19388;SDS011;9830;41.876;23.474;2023-07-28T01:36:31;0.20;;;0.20;;
19388;SDS011;9830;41.876;23.474;2023-07-28T01:38:57;0.10;;;0.10;;
19388;SDS011;9830;41.876;23.474;2023-07-28T01:41:23;0.20;;;0.20;;
19388;SDS011;9830;41.876;23.474;2023-07-28T01:43:48;0.57;;;0.57;;
19388;SDS011;9830;41.876;23.474;2023-07-28T01:46:14;0.20;;;0.20;;
19388;SDS011;9830;41.876;23.474;2023-07-28T01:48:40;0.30;;;0.30;;
19388;SDS011;9830;41.876;23.474;2023-07-28T01:51:05;0.40;;;0.40;;
19388;SDS011;9830;41.876;23.474;2023-07-28T01:53:31;0.47;;;0.47;;
19388;SDS011;9830;41.876;23.474;2023-07-28T01:55:57;1.00;;;0.77;;
19388;SDS011;9830;41.876;23.474;2023-07-28T01:58:22;0.40;;;0.40;;
19388;SDS011;9830;41.876;23.474;2023-07-28T02:00:48;1.23;;;0.50;;
19388;SDS011;9830;41.876;23.474;2023-07-28T02:03:14;0.20;;;0.10;;
19388;SDS011;9830;41.876;23.474;2023-07-28T02:05:39;0.30;;;0.30;;
19388;SDS011;9830;41.876;23.474;2023-07-28T02:08:05;0.80;;;0.80;;
19388;SDS011;9830;41.876;23.474;2023-07-28T02:10:31;0.43;;;0.43;;
19388;SDS011;9830;41.876;23.474;2023-07-28T02:12:56;0.27;;;0.27;;
19388;SDS011;9830;41.876;23.474;2023-07-28T02:15:22;0.30;;;0.30;;
19388;SDS011;9830;41.876;23.474;2023-07-28T02:17:48;0.30;;;0.30;;
19388;SDS011;9830;41.876;23.474;2023-07-28T02:20:14;0.07;;;0.07;;
19388;SDS011;9830;41.876;23.474;2023-07-28T02:22:40;0.60;;;0.37;;
19388;SDS011;9830;41.876;23.474;2023-07-28T02:25:09;0.40;;;0.40;;
19388;SDS011;9830;41.876;23.474;2023-07-28T02:27:35;3.27;;;0.93;;
19388;SDS011;9830;41.876;23.474;2023-07-28T02:30:05;0.40;;;0.40;;
19388;SDS011;9830;41.876;23.474;2023-07-28T02:32:31;0.30;;;0.30;;
19388;SDS011;9830;41.876;23.474;2023-07-28T02:34:57;0.17;;;0.17;;
19388;SDS011;9830;41.876;23.474;2023-07-28T02:37:23;0.40;;;0.40;;
19388;SDS011;9830;41.876;23.474;2023-07-28T02:39:49;0.17;;;0.17;;
19388;SDS011;9830;41.876;23.474;2023-07-28T02:42:15;0.50;;;0.33;;
19388;SDS011;9830;41.876;23.474;2023-07-28T02:44:41;0.57;;;0.57;;
19388;SDS011;9830;41.876;23.474;2023-07-28T02:47:06;0.47;;;0.37;;
19388;SDS011;9830;41.876;23.474;2023-07-28T02:49:32;1.90;;;0.60;;
19388;SDS011;9830;41.876;23.474;2023-07-28T02:51:58;0.07;;;0.07;;
19388;SDS011;9830;41.876;23.474;2023-07-28T02:54:24;0.00;;;0.00;;
19388;SDS011;9830;41.876;23.474;2023-07-28T02:56:50;0.13;;;0.13;;
19388;SDS011;9830;41.876;23.474;2023-07-28T02:59:16;0.23;;;0.23;;
19388;SDS011;9830;41.876;23.474;2023-07-28T03:01:42;0.00;;;0.00;;
19388;SDS011;9830;41.876;23.474;2023-07-28T03:04:07;0.50;;;0.40;;
19388;SDS011;9830;41.876;23.474;2023-07-28T03:06:33;0.20;;;0.20;;
19388;SDS011;9830;41.876;23.474;2023-07-28T03:08:59;0.20;;;0.10;;
19388;SDS011;9830;41.876;23.474;2023-07-28T03:11:25;0.30;;;0.30;;
19388;SDS011;9830;41.876;23.474;2023-07-28T03:13:50;0.00;;;0.00;;
19388;SDS011;9830;41.876;23.474;2023-07-28T03:16:16;0.13;;;0.13;;
19388;SDS011;9830;41.876;23.474;2023-07-28T03:18:42;0.23;;;0.23;;
19388;SDS011;9830;41.876;23.474;2023-07-28T03:21:11;0.70;;;0.70;;
19388;SDS011;9830;41.876;23.474;2023-07-28T03:23:36;1.40;;;0.57;;
19388;SDS011;9830;41.876;23.474;2023-07-28T03:26:02;0.00;;;0.00;;
19388;SDS011;9830;41.876;23.474;2023-07-28T03:28:27;3.30;;;1.07;;
19388;SDS011;9830;41.876;23.474;2023-07-28T03:30:53;0.10;;;0.10;;
19388;SDS011;9830;41.876;23.474;2023-07-28T03:33:19;0.70;;;0.33;;
19388;SDS011;9830;41.876;23.474;2023-07-28T03:35:44;7.40;;;0.53;;
19388;SDS011;9830;41.876;23.474;2023-07-28T03:38:10;2.00;;;0.60;;
19388;SDS011;9830;41.876;23.474;2023-07-28T03:40:36;0.20;;;0.20;;
19388;SDS011;9830;41.876;23.474;2023-07-28T03:43:02;0.43;;;0.10;;
19388;SDS011;9830;41.876;23.474;2023-07-28T03:45:27;0.33;;;0.20;;
19388;SDS011;9830;41.876;23.474;2023-07-28T03:47:54;5.83;;;0.50;;
19388;SDS011;9830;41.876;23.474;2023-07-28T03:50:19;0.20;;;0.20;;
19388;SDS011;9830;41.876;23.474;2023-07-28T03:52:45;0.10;;;0.10;;
19388;SDS011;9830;41.876;23.474;2023-07-28T03:55:11;0.73;;;0.40;;
19388;SDS011;9830;41.876;23.474;2023-07-28T03:57:36;0.10;;;0.10;;
19388;SDS011;9830;41.876;23.474;2023-07-28T04:00:02;0.20;;;0.20;;
19388;SDS011;9830;41.876;23.474;2023-07-28T04:02:28;0.20;;;0.20;;
19388;SDS011;9830;41.876;23.474;2023-07-28T04:04:54;0.63;;;0.63;;
19388;SDS011;9830;41.876;23.474;2023-07-28T04:07:20;0.63;;;0.63;;
19388;SDS011;9830;41.876;23.474;2023-07-28T04:09:46;1.40;;;0.60;;
19388;SDS011;9830;41.876;23.474;2023-07-28T04:12:12;0.50;;;0.50;;
19388;SDS011;9830;41.876;23.474;2023-07-28T04:14:37;0.33;;;0.33;;
19388;SDS011;9830;41.876;23.474;2023-07-28T04:17:03;0.70;;;0.70;;
19388;SDS011;9830;41.876;23.474;2023-07-28T04:19:29;0.30;;;0.30;;
19388;SDS011;9830;41.876;23.474;2023-07-28T04:21:55;0.63;;;0.63;;
19388;SDS011;9830;41.876;23.474;2023-07-28T04:24:23;1.77;;;1.53;;
19388;SDS011;9830;41.876;23.474;2023-07-28T04:26:50;2.57;;;1.03;;
19388;SDS011;9830;41.876;23.474;2023-07-28T04:29:16;0.70;;;0.70;;
19388;SDS011;9830;41.876;23.474;2023-07-28T04:31:41;0.80;;;0.50;;
19388;SDS011;9830;41.876;23.474;2023-07-28T04:34:07;0.47;;;0.47;;
19388;SDS011;9830;41.876;23.474;2023-07-28T04:36:33;1.47;;;1.37;;
19388;SDS011;9830;41.876;23.474;2023-07-28T04:38:59;1.37;;;1.37;;
19388;SDS011;9830;41.876;23.474;2023-07-28T04:41:25;1.10;;;1.10;;
19388;SDS011;9830;41.876;23.474;2023-07-28T04:43:51;2.03;;;1.83;;
19388;SDS011;9830;41.876;23.474;2023-07-28T04:46:16;2.57;;;2.27;;
19388;SDS011;9830;41.876;23.474;2023-07-28T04:48:42;2.00;;;1.60;;
19388;SDS011;9830;41.876;23.474;2023-07-28T04:51:08;1.13;;;0.87;;
19388;SDS011;9830;41.876;23.474;2023-07-28T04:53:33;1.30;;;1.30;;
19388;SDS011;9830;41.876;23.474;2023-07-28T04:55:59;0.70;;;0.70;;
19388;SDS011;9830;41.876;23.474;2023-07-28T04:58:25;2.27;;;0.93;;
19388;SDS011;9830;41.876;23.474;2023-07-28T05:00:51;0.63;;;0.63;;
19388;SDS011;9830;41.876;23.474;2023-07-28T05:03:17;1.83;;;1.07;;
19388;SDS011;9830;41.876;23.474;2023-07-28T05:05:43;1.27;;;1.17;;
19388;SDS011;9830;41.876;23.474;2023-07-28T05:08:09;1.47;;;1.47;;
19388;SDS011;9830;41.876;23.474;2023-07-28T05:10:35;2.27;;;2.07;;
19388;SDS011;9830;41.876;23.474;2023-07-28T05:13:00;2.37;;;2.13;;
19388;SDS011;9830;41.876;23.474;2023-07-28T05:15:26;2.27;;;2.07;;
19388;SDS011;9830;41.876;23.474;2023-07-28T05:17:51;2.67;;;2.47;;
19388;SDS011;9830;41.876;23.474;2023-07-28T05:20:17;2.97;;;2.77;;
19388;SDS011;9830;41.876;23.474;2023-07-28T05:22:43;8.03;;;4.80;;
19388;SDS011;9830;41.876;23.474;2023-07-28T05:25:08;4.87;;;4.43;;
19388;SDS011;9830;41.876;23.474;2023-07-28T05:27:35;2.47;;;2.38;;
19388;SDS011;9830;41.876;23.474;2023-07-28T05:30:01;6.13;;;3.22;;
19388;SDS011;9830;41.876;23.474;2023-07-28T05:32:27;4.47;;;3.47;;
19388;SDS011;9830;41.876;23.474;2023-07-28T05:34:52;2.15;;;2.05;;
19388;SDS011;9830;41.876;23.474;2023-07-28T05:37:18;1.98;;;1.88;;
19388;SDS011;9830;41.876;23.474;2023-07-28T05:39:44;1.70;;;1.60;;
19388;SDS011;9830;41.876;23.474;2023-07-28T05:42:10;10.80;;;2.03;;
19388;SDS011;9830;41.876;23.474;2023-07-28T05:44:35;1.42;;;1.35;;
19388;SDS011;9830;41.876;23.474;2023-07-28T05:47:01;1.60;;;1.50;;
19388;SDS011;9830;41.876;23.474;2023-07-28T05:49:27;2.17;;;1.98;;
19388;SDS011;9830;41.876;23.474;2023-07-28T05:51:53;1.48;;;1.48;;
19388;SDS011;9830;41.876;23.474;2023-07-28T05:54:18;2.70;;;1.80;;
19388;SDS011;9830;41.876;23.474;2023-07-28T05:56:44;3.08;;;2.30;;
19388;SDS011;9830;41.876;23.474;2023-07-28T05:59:09;1.55;;;1.45;;
19388;SDS011;9830;41.876;23.474;2023-07-28T06:01:35;1.05;;;1.00;;
19388;SDS011;9830;41.876;23.474;2023-07-28T06:04:01;1.65;;;1.55;;
19388;SDS011;9830;41.876;23.474;2023-07-28T06:06:27;0.90;;;0.90;;
19388;SDS011;9830;41.876;23.474;2023-07-28T06:08:53;0.90;;;0.90;;
19388;SDS011;9830;41.876;23.474;2023-07-28T06:11:19;1.60;;;1.50;;
19388;SDS011;9830;41.876;23.474;2023-07-28T06:13:45;8.70;;;1.63;;
19388;SDS011;9830;41.876;23.474;2023-07-28T06:16:11;1.38;;;1.27;;
19388;SDS011;9830;41.876;23.474;2023-07-28T06:18:37;1.15;;;1.05;;
19388;SDS011;9830;41.876;23.474;2023-07-28T06:21:03;2.55;;;0.80;;
19388;SDS011;9830;41.876;23.474;2023-07-28T06:23:29;0.80;;;0.80;;
19388;SDS011;9830;41.876;23.474;2023-07-28T06:25:55;1.65;;;1.55;;
19388;SDS011;9830;41.876;23.474;2023-07-28T06:28:20;1.23;;;1.13;;
19388;SDS011;9830;41.876;23.474;2023-07-28T06:30:46;0.82;;;0.82;;
19388;SDS011;9830;41.876;23.474;2023-07-28T06:33:12;1.08;;;1.08;;
19388;SDS011;9830;41.876;23.474;2023-07-28T06:35:38;1.27;;;1.17;;
19388;SDS011;9830;41.876;23.474;2023-07-28T06:38:03;0.95;;;0.90;;
19388;SDS011;9830;41.876;23.474;2023-07-28T06:40:29;1.40;;;1.33;;
19388;SDS011;9830;41.876;23.474;2023-07-28T06:42:55;1.75;;;1.30;;
19388;SDS011;9830;41.876;23.474;2023-07-28T06:45:21;1.70;;;1.60;;
19388;SDS011;9830;41.876;23.474;2023-07-28T06:47:46;1.60;;;1.48;;
19388;SDS011;9830;41.876;23.474;2023-07-28T06:50:12;1.33;;;1.08;;
19388;SDS011;9830;41.876;23.474;2023-07-28T06:52:38;1.30;;;0.77;;
19388;SDS011;9830;41.876;23.474;2023-07-28T06:55:04;1.73;;;1.63;;
19388;SDS011;9830;41.876;23.474;2023-07-28T06:57:30;0.77;;;0.77;;
19388;SDS011;9830;41.876;23.474;2023-07-28T06:59:56;1.33;;;1.23;;
19388;SDS011;9830;41.876;23.474;2023-07-28T07:02:22;0.95;;;0.90;;
19388;SDS011;9830;41.876;23.474;2023-07-28T07:04:48;1.17;;;1.13;;
19388;SDS011;9830;41.876;23.474;2023-07-28T07:07:14;1.13;;;1.13;;
19388;SDS011;9830;41.876;23.474;2023-07-28T07:09:39;3.75;;;0.93;;
19388;SDS011;9830;41.876;23.474;2023-07-28T07:12:07;0.45;;;0.45;;
19388;SDS011;9830;41.876;23.474;2023-07-28T07:14:34;0.63;;;0.63;;
19388;SDS011;9830;41.876;23.474;2023-07-28T07:16:59;2.80;;;1.13;;
19388;SDS011;9830;41.876;23.474;2023-07-28T07:19:27;0.75;;;0.73;;
19388;SDS011;9830;41.876;23.474;2023-07-28T07:21:53;1.10;;;1.10;;
19388;SDS011;9830;41.876;23.474;2023-07-28T07:24:20;0.73;;;0.73;;
19388;SDS011;9830;41.876;23.474;2023-07-28T07:26:46;1.05;;;1.05;;
19388;SDS011;9830;41.876;23.474;2023-07-28T07:29:11;0.73;;;0.73;;
19388;SDS011;9830;41.876;23.474;2023-07-28T07:31:37;0.82;;;0.82;;
19388;SDS011;9830;41.876;23.474;2023-07-28T07:34:03;0.68;;;0.68;;
19388;SDS011;9830;41.876;23.474;2023-07-28T07:36:29;5.00;;;1.27;;
19388;SDS011;9830;41.876;23.474;2023-07-28T07:38:55;1.23;;;0.77;;
19388;SDS011;9830;41.876;23.474;2023-07-28T07:41:21;0.80;;;0.80;;
19388;SDS011;9830;41.876;23.474;2023-07-28T07:43:48;0.75;;;0.60;;
19388;SDS011;9830;41.876;23.474;2023-07-28T07:46:15;1.05;;;0.47;;
19388;SDS011;9830;41.876;23.474;2023-07-28T07:48:41;0.63;;;0.63;;
19388;SDS011;9830;41.876;23.474;2023-07-28T07:51:08;0.40;;;0.40;;
19388;SDS011;9830;41.876;23.474;2023-07-28T07:53:34;0.68;;;0.68;;
19388;SDS011;9830;41.876;23.474;2023-07-28T07:56:03;13.48;;;1.60;;
19388;SDS011;9830;41.876;23.474;2023-07-28T07:58:29;1.60;;;1.50;;
19388;SDS011;9830;41.876;23.474;2023-07-28T08:00:55;0.75;;;0.75;;
19388;SDS011;9830;41.876;23.474;2023-07-28T08:03:22;1.10;;;0.65;;
19388;SDS011;9830;41.876;23.474;2023-07-28T08:05:47;0.93;;;0.88;;
19388;SDS011;9830;41.876;23.474;2023-07-28T08:08:13;0.60;;;0.60;;
19388;SDS011;9830;41.876;23.474;2023-07-28T08:10:42;0.50;;;0.50;;
19388;SDS011;9830;41.876;23.474;2023-07-28T08:13:09;1.85;;;1.10;;
19388;SDS011;9830;41.876;23.474;2023-07-28T08:15:35;0.85;;;0.85;;
19388;SDS011;9830;41.876;23.474;2023-07-28T08:18:00;0.68;;;0.55;;
19388;SDS011;9830;41.876;23.474;2023-07-28T08:20:26;3.88;;;1.05;;
19388;SDS011;9830;41.876;23.474;2023-07-28T08:22:52;1.00;;;0.82;;
19388;SDS011;9830;41.876;23.474;2023-07-28T08:25:17;0.70;;;0.70;;
19388;SDS011;9830;41.876;23.474;2023-07-28T08:27:43;1.50;;;1.20;;
19388;SDS011;9830;41.876;23.474;2023-07-28T08:30:09;0.60;;;0.60;;
19388;SDS011;9830;41.876;23.474;2023-07-28T08:32:35;1.08;;;0.98;;
19388;SDS011;9830;41.876;23.474;2023-07-28T08:35:01;0.80;;;0.80;;
19388;SDS011;9830;41.876;23.474;2023-07-28T08:37:28;0.70;;;0.70;;
19388;SDS011;9830;41.876;23.474;2023-07-28T08:39:54;0.40;;;0.40;;
19388;SDS011;9830;41.876;23.474;2023-07-28T08:42:20;0.47;;;0.47;;
19388;SDS011;9830;41.876;23.474;2023-07-28T08:44:49;0.55;;;0.55;;
19388;SDS011;9830;41.876;23.474;2023-07-28T08:47:17;0.70;;;0.70;;
19388;SDS011;9830;41.876;23.474;2023-07-28T08:49:44;0.95;;;0.95;;
19388;SDS011;9830;41.876;23.474;2023-07-28T08:52:10;0.52;;;0.52;;
19388;SDS011;9830;41.876;23.474;2023-07-28T08:54:35;0.90;;;0.90;;
19388;SDS011;9830;41.876;23.474;2023-07-28T08:57:01;3.35;;;1.83;;
19388;SDS011;9830;41.876;23.474;2023-07-28T08:59:29;1.92;;;0.85;;
19388;SDS011;9830;41.876;23.474;2023-07-28T09:01:56;0.90;;;0.90;;
19388;SDS011;9830;41.876;23.474;2023-07-28T09:04:24;0.30;;;0.30;;
19388;SDS011;9830;41.876;23.474;2023-07-28T09:06:50;3.08;;;0.80;;
19388;SDS011;9830;41.876;23.474;2023-07-28T09:09:19;0.80;;;0.80;;
19388;SDS011;9830;41.876;23.474;2023-07-28T09:11:53;0.35;;;0.35;;
19388;SDS011;9830;41.876;23.474;2023-07-28T09:14:20;4.57;;;1.20;;
19388;SDS011;9830;41.876;23.474;2023-07-28T09:16:48;0.90;;;0.90;;
19388;SDS011;9830;41.876;23.474;2023-07-28T09:19:14;0.77;;;0.77;;
19388;SDS011;9830;41.876;23.474;2023-07-28T09:21:43;3.25;;;0.80;;
19388;SDS011;9830;41.876;23.474;2023-07-28T09:24:12;1.02;;;0.82;;
19388;SDS011;9830;41.876;23.474;2023-07-28T09:26:42;0.43;;;0.43;;
19388;SDS011;9830;41.876;23.474;2023-07-28T09:29:10;3.42;;;1.58;;
19388;SDS011;9830;41.876;23.474;2023-07-28T09:31:41;1.55;;;1.02;;
19388;SDS011;9830;41.876;23.474;2023-07-28T09:34:07;0.70;;;0.70;;
19388;SDS011;9830;41.876;23.474;2023-07-28T09:36:34;3.45;;;1.27;;
19388;SDS011;9830;41.876;23.474;2023-07-28T09:39:01;0.75;;;0.75;;
19388;SDS011;9830;41.876;23.474;2023-07-28T09:41:29;0.70;;;0.70;;
19388;SDS011;9830;41.876;23.474;2023-07-28T09:43:55;0.82;;;0.82;;
19388;SDS011;9830;41.876;23.474;2023-07-28T09:46:22;1.35;;;1.02;;
19388;SDS011;9830;41.876;23.474;2023-07-28T09:48:52;0.50;;;0.50;;
19388;SDS011;9830;41.876;23.474;2023-07-28T09:51:22;0.80;;;0.80;;
19388;SDS011;9830;41.876;23.474;2023-07-28T09:54:12;0.63;;;0.50;;
19388;SDS011;9830;41.876;23.474;2023-07-28T09:56:37;0.20;;;0.20;;
19388;SDS011;9830;41.876;23.474;2023-07-28T09:59:10;1.77;;;0.85;;
19388;SDS011;9830;41.876;23.474;2023-07-28T10:01:38;0.63;;;0.35;;
19388;SDS011;9830;41.876;23.474;2023-07-28T10:04:04;1.20;;;0.47;;
19388;SDS011;9830;41.876;23.474;2023-07-28T10:06:30;0.43;;;0.43;;
19388;SDS011;9830;41.876;23.474;2023-07-28T10:08:58;0.85;;;0.60;;
19388;SDS011;9830;41.876;23.474;2023-07-28T10:11:25;0.30;;;0.30;;
19388;SDS011;9830;41.876;23.474;2023-07-28T10:13:53;0.95;;;0.95;;
19388;SDS011;9830;41.876;23.474;2023-07-28T10:16:20;0.77;;;0.70;;
19388;SDS011;9830;41.876;23.474;2023-07-28T10:18:55;0.20;;;0.20;;
19388;SDS011;9830;41.876;23.474;2023-07-28T10:21:21;0.60;;;0.52;;
19388;SDS011;9830;41.876;23.474;2023-07-28T10:23:53;0.47;;;0.47;;
19388;SDS011;9830;41.876;23.474;2023-07-28T10:26:38;0.20;;;0.20;;
19388;SDS011;9830;41.876;23.474;2023-07-28T10:29:08;0.35;;;0.35;;
19388;SDS011;9830;41.876;23.474;2023-07-28T10:31:48;0.50;;;0.50;;
19388;SDS011;9830;41.876;23.474;2023-07-28T10:34:18;0.30;;;0.30;;
19388;SDS011;9830;41.876;23.474;2023-07-28T10:36:44;0.40;;;0.40;;
19388;SDS011;9830;41.876;23.474;2023-07-28T10:39:17;0.60;;;0.60;;
19388;SDS011;9830;41.876;23.474;2023-07-28T10:44:28;0.20;;;0.20;;
19388;SDS011;9830;41.876;23.474;2023-07-28T10:46:54;5.75;;;0.60;;
19388;SDS011;9830;41.876;23.474;2023-07-28T10:49:20;3.70;;;0.65;;
19388;SDS011;9830;41.876;23.474;2023-07-28T10:51:46;0.03;;;0.03;;
19388;SDS011;9830;41.876;23.474;2023-07-28T10:54:11;2.67;;;0.82;;
19388;SDS011;9830;41.876;23.474;2023-07-28T10:56:41;2.40;;;0.60;;
19388;SDS011;9830;41.876;23.474;2023-07-28T10:59:07;0.80;;;0.35;;
19388;SDS011;9830;41.876;23.474;2023-07-28T11:01:33;0.28;;;0.28;;
19388;SDS011;9830;41.876;23.474;2023-07-28T11:06:37;0.50;;;0.50;;
19388;SDS011;9830;41.876;23.474;2023-07-28T11:09:08;0.15;;;0.15;;
19388;SDS011;9830;41.876;23.474;2023-07-28T11:11:35;0.68;;;0.60;;
19388;SDS011;9830;41.876;23.474;2023-07-28T11:14:02;0.57;;;0.55;;
19388;SDS011;9830;41.876;23.474;2023-07-28T11:16:32;0.10;;;0.10;;
19388;SDS011;9830;41.876;23.474;2023-07-28T11:19:00;0.17;;;0.17;;
19388;SDS011;9830;41.876;23.474;2023-07-28T11:21:27;1.23;;;0.50;;
19388;SDS011;9830;41.876;23.474;2023-07-28T11:23:53;0.50;;;0.50;;
19388;SDS011;9830;41.876;23.474;2023-07-28T11:26:19;4.32;;;1.25;;
19388;SDS011;9830;41.876;23.474;2023-07-28T11:28:47;0.40;;;0.30;;
19388;SDS011;9830;41.876;23.474;2023-07-28T11:31:13;0.70;;;0.70;;
19388;SDS011;9830;41.876;23.474;2023-07-28T11:33:39;0.32;;;0.32;;
19388;SDS011;9830;41.876;23.474;2023-07-28T11:36:05;0.80;;;0.80;;
19388;SDS011;9830;41.876;23.474;2023-07-28T11:38:32;0.10;;;0.10;;
19388;SDS011;9830;41.876;23.474;2023-07-28T11:41:00;0.40;;;0.30;;
19388;SDS011;9830;41.876;23.474;2023-07-28T11:43:27;0.70;;;0.43;;
19388;SDS011;9830;41.876;23.474;2023-07-28T11:45:53;0.35;;;0.35;;
19388;SDS011;9830;41.876;23.474;2023-07-28T11:48:19;0.50;;;0.50;;
19388;SDS011;9830;41.876;23.474;2023-07-28T11:50:45;0.65;;;0.43;;
19388;SDS011;9830;41.876;23.474;2023-07-28T11:53:11;0.35;;;0.35;;
19388;SDS011;9830;41.876;23.474;2023-07-28T11:55:38;0.73;;;0.73;;
19388;SDS011;9830;41.876;23.474;2023-07-28T11:58:04;0.13;;;0.13;;
19388;SDS011;9830;41.876;23.474;2023-07-28T12:00:32;2.85;;;0.38;;
19388;SDS011;9830;41.876;23.474;2023-07-28T12:05:29;0.30;;;0.30;;
19388;SDS011;9830;41.876;23.474;2023-07-28T12:07:55;0.28;;;0.28;;
19388;SDS011;9830;41.876;23.474;2023-07-28T12:10:21;0.32;;;0.30;;
19388;SDS011;9830;41.876;23.474;2023-07-28T12:12:47;0.32;;;0.32;;
19388;SDS011;9830;41.876;23.474;2023-07-28T12:15:26;0.30;;;0.30;;
19388;SDS011;9830;41.876;23.474;2023-07-28T12:18:00;1.23;;;0.50;;
19388;SDS011;9830;41.876;23.474;2023-07-28T12:20:26;0.40;;;0.40;;
19388;SDS011;9830;41.876;23.474;2023-07-28T12:22:57;0.52;;;0.52;;
19388;SDS011;9830;41.876;23.474;2023-07-28T12:25:25;0.70;;;0.70;;
19388;SDS011;9830;41.876;23.474;2023-07-28T12:27:50;0.50;;;0.50;;
19388;SDS011;9830;41.876;23.474;2023-07-28T12:30:17;0.13;;;0.13;;
19388;SDS011;9830;41.876;23.474;2023-07-28T12:32:43;0.52;;;0.52;;
19388;SDS011;9830;41.876;23.474;2023-07-28T12:35:09;0.55;;;0.55;;
19388;SDS011;9830;41.876;23.474;2023-07-28T12:37:35;1.13;;;0.50;;
19388;SDS011;9830;41.876;23.474;2023-07-28T12:40:00;0.43;;;0.43;;
19388;SDS011;9830;41.876;23.474;2023-07-28T12:42:26;0.30;;;0.25;;
19388;SDS011;9830;41.876;23.474;2023-07-28T12:44:52;0.82;;;0.80;;
19388;SDS011;9830;41.876;23.474;2023-07-28T12:47:17;0.35;;;0.35;;
19388;SDS011;9830;41.876;23.474;2023-07-28T12:49:43;0.32;;;0.32;;
19388;SDS011;9830;41.876;23.474;2023-07-28T12:52:09;0.40;;;0.40;;
19388;SDS011;9830;41.876;23.474;2023-07-28T12:54:35;0.68;;;0.63;;
19388;SDS011;9830;41.876;23.474;2023-07-28T12:57:00;0.15;;;0.15;;
19388;SDS011;9830;41.876;23.474;2023-07-28T12:59:27;0.30;;;0.30;;
19388;SDS011;9830;41.876;23.474;2023-07-28T13:01:54;1.85;;;1.23;;
19388;SDS011;9830;41.876;23.474;2023-07-28T13:04:20;0.75;;;0.47;;
19388;SDS011;9830;41.876;23.474;2023-07-28T13:06:46;0.20;;;0.20;;
19388;SDS011;9830;41.876;23.474;2023-07-28T13:09:11;0.28;;;0.28;;
19388;SDS011;9830;41.876;23.474;2023-07-28T13:11:37;0.77;;;0.50;;
19388;SDS011;9830;41.876;23.474;2023-07-28T13:14:03;0.30;;;0.30;;
19388;SDS011;9830;41.876;23.474;2023-07-28T13:16:29;0.47;;;0.47;;
19388;SDS011;9830;41.876;23.474;2023-07-28T13:18:56;0.63;;;0.63;;
19388;SDS011;9830;41.876;23.474;2023-07-28T13:21:22;0.43;;;0.43;;
19388;SDS011;9830;41.876;23.474;2023-07-28T13:23:48;0.20;;;0.20;;
19388;SDS011;9830;41.876;23.474;2023-07-28T13:26:14;0.45;;;0.43;;
19388;SDS011;9830;41.876;23.474;2023-07-28T13:28:40;0.40;;;0.40;;
19388;SDS011;9830;41.876;23.474;2023-07-28T13:31:11;0.32;;;0.32;;
19388;SDS011;9830;41.876;23.474;2023-07-28T13:33:43;0.15;;;0.15;;
19388;SDS011;9830;41.876;23.474;2023-07-28T13:36:10;0.28;;;0.28;;
19388;SDS011;9830;41.876;23.474;2023-07-28T13:38:37;0.60;;;0.55;;
19388;SDS011;9830;41.876;23.474;2023-07-28T13:41:04;0.40;;;0.38;;
19388;SDS011;9830;41.876;23.474;2023-07-28T13:43:33;0.40;;;0.40;;
19388;SDS011;9830;41.876;23.474;2023-07-28T13:46:05;0.30;;;0.25;;
19388;SDS011;9830;41.876;23.474;2023-07-28T13:48:32;0.03;;;0.03;;
19388;SDS011;9830;41.876;23.474;2023-07-28T13:50:58;0.65;;;0.50;;
19388;SDS011;9830;41.876;23.474;2023-07-28T13:53:24;0.40;;;0.40;;
19388;SDS011;9830;41.876;23.474;2023-07-28T13:55:50;2.03;;;0.60;;
19388;SDS011;9830;41.876;23.474;2023-07-28T13:58:16;0.40;;;0.40;;
19388;SDS011;9830;41.876;23.474;2023-07-28T14:00:42;0.47;;;0.47;;
19388;SDS011;9830;41.876;23.474;2023-07-28T14:03:08;0.77;;;0.77;;
19388;SDS011;9830;41.876;23.474;2023-07-28T14:05:35;0.80;;;0.50;;
19388;SDS011;9830;41.876;23.474;2023-07-28T14:08:00;0.63;;;0.43;;
19388;SDS011;9830;41.876;23.474;2023-07-28T14:10:26;0.98;;;0.90;;
19388;SDS011;9830;41.876;23.474;2023-07-28T14:12:52;0.15;;;0.15;;
19388;SDS011;9830;41.876;23.474;2023-07-28T14:15:18;0.20;;;0.20;;
19388;SDS011;9830;41.876;23.474;2023-07-28T14:17:44;0.30;;;0.30;;
19388;SDS011;9830;41.876;23.474;2023-07-28T14:20:09;0.20;;;0.20;;
19388;SDS011;9830;41.876;23.474;2023-07-28T14:22:35;0.57;;;0.55;;
19388;SDS011;9830;41.876;23.474;2023-07-28T14:25:02;0.63;;;0.63;;
19388;SDS011;9830;41.876;23.474;2023-07-28T14:27:28;0.20;;;0.20;;
19388;SDS011;9830;41.876;23.474;2023-07-28T14:29:53;0.38;;;0.38;;
19388;SDS011;9830;41.876;23.474;2023-07-28T14:32:19;0.50;;;0.50;;
19388;SDS011;9830;41.876;23.474;2023-07-28T14:34:45;0.22;;;0.22;;
19388;SDS011;9830;41.876;23.474;2023-07-28T14:37:10;0.43;;;0.43;;
19388;SDS011;9830;41.876;23.474;2023-07-28T14:39:36;0.60;;;0.60;;
19388;SDS011;9830;41.876;23.474;2023-07-28T14:42:02;0.40;;;0.40;;
19388;SDS011;9830;41.876;23.474;2023-07-28T14:44:28;0.43;;;0.40;;
19388;SDS011;9830;41.876;23.474;2023-07-28T14:46:54;0.10;;;0.10;;
19388;SDS011;9830;41.876;23.474;2023-07-28T14:49:20;0.50;;;0.50;;
19388;SDS011;9830;41.876;23.474;2023-07-28T14:51:46;0.10;;;0.10;;
19388;SDS011;9830;41.876;23.474;2023-07-28T14:54:11;0.30;;;0.30;;
19388;SDS011;9830;41.876;23.474;2023-07-28T14:56:37;0.30;;;0.30;;